Reedville, Vermont
Current Conditions -  °F | °C
As of 2:54 AM on Wednesday 22 Oct 2014 (Local Time) from KVSF Reporting Station
Overcast Overcast  
Wind Chill: 47°   Ceiling: 1700
Heat Index: 49°   Visibility: 10mi
Dew Point: 44°   Wind: 6mph
Humidity: 83%   Direction: NA
Pressure: 30.05"   Gusts: NA
Location:  43.2811°N, 72.6352°W
Report Text: KVSF 220654Z AUTO VRB05KT 10SM OVC017 09/07 A3005 RMK AO2 SLP177 T00940067
Loading
Personal Weather Stations






























Interactive Weather Map
Tropical Storm Tracking
New forecast layout! Learn more

10-Day Weather Forecast

Advertisements
Track Severe Weather on mobile